Time;durP1;ratioP1;P1;durP2;ratioP2;P2;SDS_P1;SDS_P2;PMS_P1;PMS_P2;Temp;Humidity;BMP_temperature;BMP_pressure;BME280_temperature;BME280_humidity;BME280_pressure;Samples;Min_cycle;Max_cycle;Signal;HPM_P1;HPM_P2
2021/10/09 01:59:50;;;;;;;28.20;22.00;;;11.50;98.30;;;;;;4166318;28;20597;-83
2021/10/09 03:05:38;;;;;;;37.60;21.47;;;11.00;98.30;;;;;;4039270;29;20873;-82
2021/10/09 03:25:33;;;;;;;25.37;19.47;;;10.60;98.30;;;;;;4168595;28;20471;-83
2021/10/09 03:30:28;;;;;;;33.10;18.83;;;10.60;98.30;;;;;;4172647;28;20492;-83
2021/10/09 04:14:19;;;;;;;26.23;22.03;;;9.90;98.30;;;;;;3924080;30;20496;-82
2021/10/09 04:27:36;;;;;;;29.17;22.27;;;10.00;98.30;;;;;;3963196;29;20485;-82
2021/10/09 09:26:52;;;;;;;19.57;12.27;;;15.00;93.90;;;;;;4207339;28;20815;-82
2021/10/09 09:34:05;;;;;;;20.73;11.80;;;15.00;94.60;;;;;;4161708;28;20493;-82
2021/10/09 09:36:31;;;;;;;16.40;11.13;;;15.50;95.20;;;;;;4195748;28;20466;-82
2021/10/09 09:41:13;;;;;;;17.50;10.10;;;15.70;92.50;;;;;;4196198;28;20467;-82
2021/10/09 09:43:16;;;;;;;17.93;10.13;;;15.50;90.60;;;;;;4196618;28;20489;-85
2021/10/09 09:45:21;;;;;;;20.23;9.93;;;15.50;89.60;;;;;;4196288;28;20462;-82
2021/10/09 09:47:35;;;;;;;15.27;8.83;;;15.80;90.50;;;;;;4195849;28;20459;-85
2021/10/09 09:49:38;;;;;;;15.83;9.63;;;15.70;87.90;;;;;;4196638;28;20557;-85
2021/10/09 09:51:42;;;;;;;12.97;9.33;;;15.90;88.70;;;;;;4179771;28;20551;-85
2021/10/09 09:53:48;;;;;;;13.40;9.53;;;15.90;88.40;;;;;;4179053;28;20467;-82
2021/10/09 09:55:51;;;;;;;13.63;9.17;;;15.80;87.80;;;;;;4176586;28;21302;-82
2021/10/09 09:57:55;;;;;;;11.07;8.80;;;15.80;88.20;;;;;;4180385;28;20460;-82
2021/10/09 10:00:01;;;;;;;11.63;8.70;;;16.10;88.70;;;;;;4195389;28;20842;-82
2021/10/09 10:02:06;;;;;;;14.10;8.43;;;15.90;87.30;;;;;;4184974;28;20570;-83
2021/10/09 10:04:09;;;;;;;13.07;8.90;;;16.00;87.00;;;;;;4189692;28;20489;-83
2021/10/09 10:06:13;;;;;;;20.63;9.27;;;15.90;86.50;;;;;;4191138;28;20462;-82
2021/10/09 10:08:20;;;;;;;13.27;8.50;;;16.10;86.80;;;;;;4205881;28;20463;-83
2021/10/09 10:10:23;;;;;;;13.10;7.97;;;16.30;85.20;;;;;;4211923;28;20455;-83
2021/10/09 10:12:29;;;;;;;16.37;7.93;;;16.30;85.00;;;;;;4209886;28;20483;-82
2021/10/09 10:14:33;;;;;;;19.33;8.50;;;16.70;85.30;;;;;;4199439;28;20475;-83
2021/10/09 10:16:36;;;;;;;11.50;7.30;;;16.90;84.00;;;;;;4185152;28;20551;-82
2021/10/09 10:18:59;;;;;;;15.00;8.40;;;17.00;85.00;;;;;;4182792;28;20542;-82
2021/10/09 10:21:02;;;;;;;13.93;8.30;;;17.10;83.90;;;;;;4183049;28;20963;-83
2021/10/09 10:23:05;;;;;;;12.00;8.37;;;17.10;84.50;;;;;;4183262;28;21045;-83
2021/10/09 10:25:29;;;;;;;11.43;8.70;;;17.00;84.90;;;;;;4186916;28;20904;-82
2021/10/09 10:27:37;;;;;;;11.13;7.63;;;17.50;83.90;;;;;;4199651;28;20500;-83
2021/10/09 10:29:40;;;;;;;8.60;6.93;;;17.70;84.40;;;;;;4197265;28;20539;-84
2021/10/09 10:32:08;;;;;;;13.87;7.67;;;18.10;82.70;;;;;;4199449;28;20436;-83
2021/10/09 10:34:27;;;;;;;12.80;6.90;;;18.20;79.70;;;;;;4202269;28;20481;-83
2021/10/09 10:36:38;;;;;;;9.37;7.13;;;17.90;79.00;;;;;;4201290;28;20484;-82
2021/10/09 10:38:54;;;;;;;15.00;7.83;;;17.50;78.50;;;;;;4199318;28;20980;-84
2021/10/09 10:41:00;;;;;;;9.10;6.53;;;17.50;78.90;;;;;;4189845;28;20983;-84
2021/10/09 10:43:35;;;;;;;9.67;7.13;;;17.60;78.70;;;;;;4183773;28;20480;-83
2021/10/09 10:45:38;;;;;;;9.73;6.43;;;17.80;77.70;;;;;;4198633;28;20461;-83
2021/10/09 10:47:59;;;;;;;7.27;6.20;;;17.90;76.70;;;;;;4199560;28;20494;-83
2021/10/09 10:50:09;;;;;;;9.90;6.77;;;17.90;77.80;;;;;;4199662;28;20485;-83
2021/10/09 10:52:24;;;;;;;10.27;6.83;;;18.00;77.90;;;;;;4199368;28;20450;-83
2021/10/09 10:57:18;;;;;;;9.07;7.27;;;17.90;77.70;;;;;;4199341;28;20477;-83
2021/10/09 10:59:28;;;;;;;10.73;6.87;;;18.20;77.20;;;;;;4191137;28;20486;-83
2021/10/09 11:01:32;;;;;;;15.20;6.80;;;18.30;76.00;;;;;;4198422;28;20566;-84
2021/10/09 11:03:36;;;;;;;11.70;7.60;;;18.20;76.20;;;;;;4182913;28;20471;-83
2021/10/09 11:05:39;;;;;;;9.27;6.40;;;18.60;75.60;;;;;;4185177;28;20942;-83
2021/10/09 11:07:48;;;;;;;10.70;6.50;;;18.30;75.30;;;;;;4198434;28;20459;-83
2021/10/09 11:09:51;;;;;;;8.60;6.90;;;18.20;76.50;;;;;;4198327;28;20483;-83
2021/10/09 11:11:56;;;;;;;13.23;7.10;;;18.80;76.30;;;;;;4192607;28;20495;-83
2021/10/09 11:13:59;;;;;;;7.80;6.00;;;18.70;75.40;;;;;;4196866;28;20591;-83
2021/10/09 11:16:03;;;;;;;11.17;6.20;;;18.90;75.20;;;;;;4184760;28;20892;-83
2021/10/09 11:18:06;;;;;;;10.53;6.50;;;18.80;75.00;;;;;;4182992;28;20448;-83
2021/10/09 11:20:11;;;;;;;7.93;6.10;;;18.70;73.30;;;;;;4186594;28;20491;-83
2021/10/09 11:22:15;;;;;;;6.77;5.93;;;18.60;73.50;;;;;;4195274;28;20468;-83
2021/10/09 11:24:18;;;;;;;9.20;7.23;;;18.70;74.50;;;;;;4186950;28;20565;-83
2021/10/09 11:26:22;;;;;;;8.90;6.10;;;18.50;73.70;;;;;;4199746;28;20465;-83
2021/10/09 11:28:29;;;;;;;10.00;6.57;;;18.80;73.50;;;;;;4198722;28;20463;-84
2021/10/09 11:30:34;;;;;;;9.20;7.20;;;19.00;73.90;;;;;;4191931;28;20460;-83
2021/10/09 11:32:39;;;;;;;10.20;6.70;;;19.00;74.00;;;;;;4181703;28;20975;-83
2021/10/09 11:34:49;;;;;;;9.10;6.03;;;19.20;74.10;;;;;;4182679;28;20467;-84
2021/10/09 11:36:54;;;;;;;9.43;6.60;;;19.80;73.60;;;;;;4184454;28;20475;-84
2021/10/09 11:39:04;;;;;;;11.90;7.10;;;20.40;72.70;;;;;;4192468;28;20494;-84
2021/10/09 11:41:13;;;;;;;11.73;6.50;;;20.40;72.80;;;;;;4190965;28;20495;-84
2021/10/09 11:43:22;;;;;;;9.43;6.07;;;20.40;70.80;;;;;;4193392;28;20458;-84
2021/10/09 11:45:33;;;;;;;9.83;6.37;;;20.40;71.00;;;;;;4194724;28;20522;-84
2021/10/09 11:55:01;;;;;;;7.53;6.30;;;20.30;71.50;;;;;;4198563;28;20531;-84
2021/10/09 11:57:07;;;;;;;7.77;6.77;;;20.80;71.00;;;;;;4186196;28;20524;-84
2021/10/09 11:59:11;;;;;;;7.47;6.67;;;21.40;70.90;;;;;;4187520;28;20487;-84
2021/10/09 12:01:27;;;;;;;12.13;7.50;;;21.00;69.20;;;;;;4182762;28;20452;-84
2021/10/09 12:03:36;;;;;;;10.70;6.93;;;20.50;69.10;;;;;;4184285;28;20448;-84
2021/10/09 12:05:53;;;;;;;7.60;6.80;;;20.90;70.00;;;;;;4189586;28;21037;-84
2021/10/09 12:08:13;;;;;;;8.47;6.53;;;21.50;68.90;;;;;;4186883;28;20463;-84
2021/10/09 12:10:16;;;;;;;9.57;7.13;;;21.70;69.00;;;;;;4193620;28;20480;-83
2021/10/09 12:12:22;;;;;;;7.37;6.20;;;22.30;67.50;;;;;;4173331;28;20516;-84
2021/10/09 12:14:33;;;;;;;12.53;6.73;;;21.50;67.40;;;;;;4181222;28;20483;-84
2021/10/09 12:16:39;;;;;;;8.03;6.53;;;21.20;67.10;;;;;;4198082;28;20604;-84
2021/10/09 12:18:51;;;;;;;8.00;6.67;;;21.20;67.60;;;;;;4198557;28;20483;-84
2021/10/09 12:20:54;;;;;;;9.03;6.03;;;21.10;67.00;;;;;;4197861;28;20840;-84
2021/10/09 12:23:27;;;;;;;10.97;6.33;;;21.30;66.50;;;;;;4207349;28;20506;-84
2021/10/09 12:25:30;;;;;;;8.90;6.90;;;21.40;66.50;;;;;;4197613;28;20498;-84
2021/10/09 12:27:40;;;;;;;9.67;6.83;;;21.60;66.00;;;;;;4200002;28;21004;-84
2021/10/09 12:29:58;;;;;;;9.03;7.17;;;22.10;66.10;;;;;;4198903;28;20487;-84
2021/10/09 12:32:16;;;;;;;7.10;6.40;;;22.60;65.90;;;;;;4198628;28;20490;-84
2021/10/09 12:34:31;;;;;;;8.83;6.30;;;23.20;65.60;;;;;;4197899;28;20573;-84
2021/10/09 12:36:37;;;;;;;9.70;6.33;;;23.10;64.90;;;;;;4198455;28;20530;-84
2021/10/09 12:38:44;;;;;;;11.07;6.80;;;23.40;64.50;;;;;;4182322;28;20475;-84
2021/10/09 12:40:48;;;;;;;7.87;6.97;;;23.70;63.70;;;;;;4182800;28;20942;-84
2021/10/09 12:42:53;;;;;;;11.43;7.07;;;23.90;62.30;;;;;;4204478;28;20541;-84
2021/10/09 12:44:57;;;;;;;6.90;6.20;;;23.40;62.80;;;;;;4204183;28;20522;-84
2021/10/09 12:47:17;;;;;;;9.67;6.90;;;23.90;64.20;;;;;;4198608;28;20451;-84
2021/10/09 12:49:20;;;;;;;6.90;6.20;;;23.90;63.10;;;;;;4197848;28;20498;-84
2021/10/09 12:51:23;;;;;;;6.40;5.80;;;23.60;63.50;;;;;;4197638;28;20565;-85
2021/10/09 12:53:26;;;;;;;7.40;6.40;;;24.10;63.70;;;;;;4197226;28;20495;-84
2021/10/09 12:55:33;;;;;;;8.80;6.17;;;24.00;63.30;;;;;;4197826;28;20549;-84
2021/10/09 12:57:49;;;;;;;6.90;6.20;;;23.70;62.30;;;;;;4198043;28;20475;-84
2021/10/09 12:59:52;;;;;;;9.23;6.03;;;23.00;64.80;;;;;;4166595;28;21079;-84
2021/10/09 13:01:55;;;;;;;7.20;6.17;;;23.60;64.00;;;;;;4197914;28;20478;-84
2021/10/09 13:03:59;;;;;;;8.77;6.50;;;24.30;61.80;;;;;;4196969;28;20455;-84
2021/10/09 13:06:03;;;;;;;9.50;5.73;;;24.00;62.50;;;;;;4198257;28;20530;-84
2021/10/09 13:08:06;;;;;;;8.37;6.67;;;24.00;61.70;;;;;;4197655;28;20545;-84
2021/10/09 13:10:13;;;;;;;9.90;6.67;;;24.10;63.40;;;;;;4198196;28;20610;-84
2021/10/09 13:12:16;;;;;;;9.03;6.17;;;24.90;61.90;;;;;;4197029;28;20498;-84
2021/10/09 13:14:19;;;;;;;9.47;6.07;;;24.70;63.70;;;;;;4193306;28;21067;-85
2021/10/09 13:16:22;;;;;;;9.50;6.60;;;25.80;62.40;;;;;;4182181;28;20456;-84
2021/10/09 13:18:25;;;;;;;8.60;5.83;;;25.50;61.20;;;;;;4188852;28;20513;-84
2021/10/09 13:20:36;;;;;;;7.80;5.97;;;25.30;61.90;;;;;;4199216;28;20470;-85
2021/10/09 13:22:39;;;;;;;11.30;7.20;;;25.00;60.70;;;;;;4197771;28;20561;-84
2021/10/09 13:25:02;;;;;;;10.93;7.50;;;23.20;62.90;;;;;;4164887;28;20932;-84
2021/10/09 13:27:05;;;;;;;9.37;6.93;;;24.00;62.90;;;;;;4186947;28;20558;-84
2021/10/09 13:29:08;;;;;;;8.43;7.10;;;24.50;63.30;;;;;;4197225;28;20919;-85
2021/10/09 13:31:11;;;;;;;8.57;6.80;;;25.00;61.40;;;;;;4197724;28;20474;-85
2021/10/09 13:33:14;;;;;;;10.67;5.90;;;25.20;62.10;;;;;;4197749;28;20547;-85
2021/10/09 13:35:17;;;;;;;8.37;5.83;;;25.60;60.30;;;;;;4198226;28;20506;-84
2021/10/09 13:37:24;;;;;;;12.43;7.23;;;25.40;59.90;;;;;;4197943;28;20994;-84
2021/10/09 13:39:27;;;;;;;11.20;6.67;;;25.50;60.20;;;;;;4197449;28;20522;-84
2021/10/09 13:41:30;;;;;;;8.20;6.70;;;24.80;59.40;;;;;;4195863;28;20557;-85
2021/10/09 13:43:33;;;;;;;8.30;6.33;;;24.90;59.80;;;;;;4196786;28;20474;-84
2021/10/09 13:45:36;;;;;;;8.50;6.40;;;25.30;60.30;;;;;;4197841;28;20469;-84
2021/10/09 13:47:41;;;;;;;8.20;7.40;;;24.70;61.00;;;;;;4203420;28;20467;-85
2021/10/09 13:49:44;;;;;;;8.67;6.70;;;25.10;59.40;;;;;;4200046;28;21034;-84
2021/10/09 13:51:47;;;;;;;8.57;7.23;;;24.30;60.20;;;;;;4196320;28;20567;-84
2021/10/09 13:53:51;;;;;;;7.73;6.23;;;25.40;60.00;;;;;;4187629;28;20938;-85
2021/10/09 13:55:54;;;;;;;8.90;6.20;;;26.00;59.10;;;;;;4185247;28;20475;-84
2021/10/09 13:57:57;;;;;;;8.10;6.60;;;26.30;57.90;;;;;;4196456;28;20500;-85
2021/10/09 14:00:01;;;;;;;12.10;6.43;;;26.40;57.90;;;;;;4196330;28;20919;-85
2021/10/09 14:02:04;;;;;;;9.13;5.97;;;26.20;57.20;;;;;;4196218;28;20463;-84
2021/10/09 14:04:07;;;;;;;9.00;6.10;;;25.40;56.50;;;;;;4187755;28;20497;-84
2021/10/09 14:06:11;;;;;;;9.87;7.20;;;24.90;57.20;;;;;;4196230;28;20475;-84
2021/10/09 14:08:14;;;;;;;7.20;6.00;;;24.70;57.20;;;;;;4195587;28;20472;-84
2021/10/09 14:10:19;;;;;;;6.20;5.60;;;23.90;58.00;;;;;;4195901;28;21002;-84
2021/10/09 14:12:22;;;;;;;6.60;5.40;;;24.10;57.70;;;;;;4195538;28;20467;-84
2021/10/09 14:14:26;;;;;;;8.10;6.07;;;24.30;57.60;;;;;;4195667;28;20558;-84
2021/10/09 14:16:29;;;;;;;7.17;5.90;;;24.40;57.20;;;;;;4195769;28;20475;-84
2021/10/09 14:18:33;;;;;;;8.07;5.80;;;24.30;57.90;;;;;;4197721;28;20458;-84
2021/10/09 14:20:36;;;;;;;10.10;6.97;;;24.30;57.00;;;;;;4196388;28;20494;-84
2021/10/09 14:22:39;;;;;;;7.93;6.17;;;23.40;58.00;;;;;;4195178;28;20460;-84
2021/10/09 14:24:42;;;;;;;7.33;5.70;;;22.50;59.90;;;;;;4195864;28;20463;-84
2021/10/09 14:26:48;;;;;;;7.03;5.70;;;22.70;60.40;;;;;;4187211;28;21068;-84
2021/10/09 14:28:51;;;;;;;8.80;5.97;;;23.10;60.00;;;;;;4179614;28;20489;-84
2021/10/09 14:30:56;;;;;;;6.03;5.50;;;24.00;59.00;;;;;;4187532;28;21121;-84
2021/10/09 14:32:59;;;;;;;10.50;6.43;;;24.40;58.60;;;;;;4187862;28;20467;-84
2021/10/09 14:35:04;;;;;;;7.37;5.40;;;24.60;58.90;;;;;;4189807;28;20534;-84
2021/10/09 14:37:07;;;;;;;7.77;5.63;;;23.90;57.60;;;;;;4196373;28;20891;-84
2021/10/09 14:39:10;;;;;;;7.30;6.00;;;23.20;58.80;;;;;;4195563;28;20513;-85
2021/10/09 14:41:14;;;;;;;9.27;5.60;;;23.80;57.90;;;;;;4191735;28;20852;-84
2021/10/09 14:43:19;;;;;;;11.20;6.10;;;22.70;59.50;;;;;;4183686;28;20542;-84
2021/10/09 14:45:23;;;;;;;8.70;5.53;;;22.50;59.80;;;;;;4187577;28;20553;-84
2021/10/09 14:49:47;;;;;;;6.90;5.50;;;24.10;59.70;;;;;;4189959;28;20484;-84
2021/10/09 14:51:53;;;;;;;8.80;5.30;;;24.40;58.30;;;;;;4191333;28;20542;-84
2021/10/09 15:18:09;;;;;;;7.90;7.10;;;22.50;63.50;;;;;;4183271;28;20894;-83
2021/10/09 15:20:22;;;;;;;7.43;6.33;;;22.20;64.50;;;;;;4226809;22;20477;-84
2021/10/09 15:22:41;;;;;;;6.97;6.17;;;21.70;65.20;;;;;;4194903;28;20833;-84
2021/10/09 15:28:05;;;;;;;10.97;6.90;;;21.80;66.70;;;;;;4203393;28;20550;-84
2021/10/09 15:31:13;;;;;;;13.50;7.47;;;21.60;66.70;;;;;;4220840;28;20853;-84
2021/10/09 15:50:49;;;;;;;9.70;6.90;;;20.00;71.40;;;;;;4202239;28;20477;-85
2021/10/09 18:29:41;;;;;;;10.87;9.30;;;12.60;98.30;;;;;;3999739;29;20467;-85
